Englewood, Kansas
Current Conditions -  °F | °C
As of 3:35 PM on Saturday 22 Nov 2014 (Local Time) from KWWR Reporting Station
Scattered Clouds Scattered Clouds  
Wind Chill: 57°   Ceiling: Unl
Heat Index: 57°   Visibility: 10mi
Dew Point: 52°   Wind: 18mph
Humidity: 82%   Direction: 170°S
Pressure: 29.73"   Gusts: 28mph
Location:  37.04°N, 99.98°W
Report Text: KWWR 222135Z AUTO 17016G24KT 10SM SCT010 14/11 A2973 RMK AO2
Loading
Personal Weather Stations






























Interactive Weather Map New forecast layout! Learn more

10-Day Weather Forecast

Advertisements
Track Severe Weather on mobile